Hauptseite
METAR-TAF:

METAR-TAF

Flughäfen :

El-Tor, Ägypten

Breite: 28-14N, Länge: 032-37E, Höhe: 21 m

Beobachtung

Neuester Wetterbericht von vor 1 Stunde und 23 Minuten, um 12:00 UTC
Wind 4 kt aus West
Temperatur 31°C
Luftfeuchtigkeit 46%
Luftdruck 1011 hPa
Sichtweite: 4000 m
trockener Dunst,

METAR: HETR 231200Z 27004KT 4000 HZ NSC 31/18 Q1011

Zeit: 15:23 (13:23 UTC)

Prognose

Neuester Wetterbericht von vor 2 Stunden und 23 Minuten, um 11:00 UTC
Gültige Prognose vom 23 um 12 UTC bis 24 um 18 UTC
Wind 8 kt aus Süd/Südwest
Sichtweite: 6000 m
Zeitweise
vom 23 um 12 UTC bis 23 um 18 UTC
Sichtweite: 4000 m
trockener Dunst,

TAF: HETR 231100Z 2312/2418 21008KT 6000 NSC TEMPO 2312/2318 4000 HZ

Wetterbeobachtungen und Prognosen von mehr als 4000 Flughäfen (METAR und TAF Bericht).

Die verfügbaren Stationen werden durch gelbe und rote Markierungen auf der Karte dargestellt.

Führen Sie die Maus auf sie, um den Namen der Station zu sehen.

Darauf klicken, um die Beobachtung von Wetterbeobachtungen und Prognosen zu sehen.

Um die Karte zu ändern : klicken Sie auf den grünen Tasten mit einem schwarzen Kreuz Zum Vergrößern, auf den grünen Button mit einem Gedankenstrich zu verkleinern, oder auf die grünen Pfeile für benachbarte Karten.


METAR-TAF: